createdAt,value
2018-09-09T00:00:15.632Z,0.00
2018-09-09T00:01:15.623Z,0.00
2018-09-09T00:02:15.623Z,0.00
2018-09-09T00:03:15.619Z,0.00
2018-09-09T00:04:15.647Z,0.00
2018-09-09T00:05:15.615Z,0.00
2018-09-09T00:06:15.627Z,0.00
2018-09-09T00:07:15.612Z,0.00
2018-09-09T00:08:15.613Z,0.00
2018-09-09T00:09:15.640Z,0.00
2018-09-09T00:10:15.624Z,0.00
2018-09-09T00:11:15.613Z,0.00
2018-09-09T00:12:15.608Z,0.00
2018-09-09T00:13:15.601Z,0.00
2018-09-09T00:14:15.633Z,0.00
2018-09-09T00:15:15.637Z,0.00
2018-09-09T00:16:15.602Z,0.00
2018-09-09T00:17:15.616Z,0.00
2018-09-09T00:18:15.597Z,0.00
2018-09-09T00:19:15.598Z,0.00
2018-09-09T00:20:15.644Z,0.00
2018-09-09T00:21:15.594Z,0.00
2018-09-09T00:22:15.594Z,0.00
2018-09-09T00:23:15.590Z,0.00
2018-09-09T00:24:15.607Z,0.00
2018-09-09T00:25:15.615Z,0.00
2018-09-09T00:26:15.583Z,0.00
2018-09-09T00:27:15.588Z,0.00
2018-09-09T00:28:15.587Z,0.00
2018-09-09T00:29:15.579Z,0.00
2018-09-09T00:30:15.612Z,0.00
2018-09-09T00:31:15.582Z,0.00
2018-09-09T00:32:15.582Z,0.00
2018-09-09T00:33:15.580Z,0.00
2018-09-09T00:34:15.608Z,0.00
2018-09-09T00:35:15.576Z,0.00
2018-09-09T00:36:15.601Z,0.00
2018-09-09T00:37:15.579Z,0.00
2018-09-09T00:38:15.572Z,0.00
2018-09-09T00:39:15.565Z,0.00
2018-09-09T00:40:15.597Z,0.00
2018-09-09T00:41:15.566Z,0.00
2018-09-09T00:42:15.557Z,0.00
2018-09-09T00:43:15.565Z,0.00
2018-09-09T00:44:15.565Z,0.00
2018-09-09T00:45:15.590Z,0.00
2018-09-09T00:46:15.562Z,0.00
2018-09-09T00:47:15.567Z,0.00
2018-09-09T00:48:15.583Z,0.00
2018-09-09T00:49:15.553Z,0.00
2018-09-09T00:50:15.587Z,0.00
2018-09-09T00:51:15.558Z,0.00
2018-09-09T00:52:15.557Z,0.00
2018-09-09T00:53:15.554Z,0.00
2018-09-09T00:54:15.559Z,0.00
2018-09-09T00:55:15.603Z,0.00
2018-09-09T00:56:15.550Z,0.00
2018-09-09T00:57:15.551Z,0.00
2018-09-09T00:58:15.571Z,0.00
2018-09-09T00:59:15.543Z,0.00
2018-09-09T01:00:15.567Z,0.00
2018-09-09T01:01:15.539Z,0.00
2018-09-09T01:02:15.540Z,0.00
2018-09-09T01:03:15.536Z,0.00
2018-09-09T01:04:15.536Z,0.00
2018-09-09T01:05:15.564Z,0.00
2018-09-09T01:06:15.544Z,0.00
2018-09-09T01:07:15.536Z,0.00
2018-09-09T01:08:15.549Z,0.00
2018-09-09T01:09:15.534Z,0.00
2018-09-09T01:10:15.558Z,0.00
2018-09-09T01:11:15.526Z,0.00
2018-09-09T01:12:15.526Z,0.00
2018-09-09T01:13:15.526Z,0.00
2018-09-09T01:14:15.525Z,0.00
2018-09-09T01:15:15.569Z,0.00
2018-09-09T01:16:15.518Z,0.00
2018-09-09T01:17:15.521Z,0.00
2018-09-09T01:18:15.513Z,0.00
2018-09-09T01:19:15.509Z,0.00
2018-09-09T01:20:15.538Z,0.00
2018-09-09T01:21:15.509Z,0.00
2018-09-09T01:22:15.503Z,0.00
2018-09-09T01:23:15.506Z,0.00
2018-09-09T01:24:15.502Z,0.00
2018-09-09T01:25:15.535Z,0.00
2018-09-09T01:26:15.503Z,0.00
2018-09-09T01:27:15.498Z,0.00
2018-09-09T01:28:15.499Z,0.00
2018-09-09T01:29:15.507Z,0.00
2018-09-09T01:30:15.516Z,0.00
2018-09-09T01:31:15.492Z,0.00
2018-09-09T01:32:15.491Z,0.00
2018-09-09T01:33:15.485Z,0.00
2018-09-09T01:34:15.490Z,0.00
2018-09-09T01:35:15.521Z,0.00
2018-09-09T01:36:15.505Z,0.00
2018-09-09T01:37:15.484Z,0.00
2018-09-09T01:38:15.481Z,0.00
2018-09-09T01:39:15.498Z,0.00
2018-09-09T01:40:15.515Z,0.00
2018-09-09T01:41:15.478Z,0.00
2018-09-09T01:42:15.473Z,0.00
2018-09-09T01:43:15.478Z,0.00
2018-09-09T01:44:15.469Z,0.00
2018-09-09T01:45:15.502Z,0.00
2018-09-09T01:46:15.658Z,0.00
2018-09-09T01:47:15.468Z,0.00
2018-09-09T01:48:15.469Z,0.00
2018-09-09T01:49:15.475Z,0.00
2018-09-09T01:50:15.491Z,0.00
2018-09-09T01:51:15.472Z,0.00
2018-09-09T01:52:15.455Z,0.00
2018-09-09T01:53:15.475Z,0.00
2018-09-09T01:54:15.459Z,0.00
2018-09-09T01:55:15.483Z,0.00
2018-09-09T01:56:15.456Z,0.00
2018-09-09T01:57:15.451Z,0.00
2018-09-09T01:58:15.451Z,0.00
2018-09-09T01:59:15.447Z,0.00
2018-09-09T02:00:15.497Z,0.00
2018-09-09T02:01:15.448Z,0.00
2018-09-09T02:02:15.443Z,0.00
2018-09-09T02:03:15.471Z,0.00
2018-09-09T02:04:15.444Z,0.00
2018-09-09T02:05:15.468Z,0.00
2018-09-09T02:06:15.445Z,0.00
2018-09-09T02:07:15.437Z,0.00
2018-09-09T02:08:15.436Z,0.00
2018-09-09T02:09:15.438Z,0.00
2018-09-09T02:10:15.477Z,0.00
2018-09-09T02:11:15.459Z,0.00
2018-09-09T02:12:15.433Z,0.00
2018-09-09T02:13:15.445Z,0.00
2018-09-09T02:14:15.429Z,0.00
2018-09-09T02:15:15.426Z,0.00
2018-09-09T02:16:15.455Z,0.00
2018-09-09T02:17:15.437Z,0.00
2018-09-09T02:18:15.418Z,0.00
2018-09-09T02:19:15.425Z,0.00
2018-09-09T02:20:15.419Z,0.00
2018-09-09T02:21:15.445Z,0.00
2018-09-09T02:22:15.420Z,0.00
2018-09-09T02:23:15.414Z,0.00
2018-09-09T02:24:15.414Z,0.00
2018-09-09T02:25:15.440Z,0.00
2018-09-09T02:26:15.531Z,0.00
2018-09-09T02:27:15.419Z,0.00
2018-09-09T02:28:15.408Z,0.00
2018-09-09T02:29:15.407Z,0.00
2018-09-09T02:30:15.439Z,0.00
2018-09-09T02:31:15.429Z,0.00
2018-09-09T02:32:15.410Z,0.00
2018-09-09T02:33:15.405Z,0.00
2018-09-09T02:34:15.406Z,0.00
2018-09-09T02:35:15.404Z,0.00
2018-09-09T02:36:15.433Z,0.00
2018-09-09T02:37:15.396Z,0.00
2018-09-09T02:38:15.401Z,0.00
2018-09-09T02:39:15.406Z,0.00
2018-09-09T02:40:15.393Z,0.00
2018-09-09T02:41:15.428Z,0.00
2018-09-09T02:42:15.399Z,0.00
2018-09-09T02:43:15.390Z,0.00
2018-09-09T02:44:15.395Z,0.00
2018-09-09T02:45:15.390Z,0.00
2018-09-09T02:46:15.421Z,0.00
2018-09-09T02:47:15.383Z,0.00
2018-09-09T02:48:15.383Z,0.00
2018-09-09T02:49:15.386Z,0.00
2018-09-09T02:50:15.380Z,0.00
2018-09-09T02:51:15.415Z,0.00
2018-09-09T02:52:15.380Z,0.00
2018-09-09T02:53:15.379Z,0.00
2018-09-09T02:54:15.381Z,0.00
2018-09-09T02:55:15.378Z,0.00
2018-09-09T02:56:15.410Z,0.00
2018-09-09T02:57:15.369Z,0.00
2018-09-09T02:58:15.382Z,0.00
2018-09-09T02:59:15.367Z,0.00
2018-09-09T03:00:15.364Z,0.00
2018-09-09T03:01:15.407Z,0.00
2018-09-09T03:02:15.365Z,0.00
2018-09-09T03:03:15.364Z,0.00
2018-09-09T03:04:15.362Z,0.00
2018-09-09T03:05:15.392Z,0.00
2018-09-09T03:06:15.513Z,0.00
2018-09-09T03:07:15.357Z,0.00
2018-09-09T03:08:15.360Z,0.00
2018-09-09T03:09:15.354Z,0.00
2018-09-09T03:10:15.382Z,0.00
2018-09-09T03:11:15.358Z,0.00
2018-09-09T03:12:15.353Z,0.00
2018-09-09T03:13:15.349Z,0.00
2018-09-09T03:14:15.349Z,0.00
2018-09-09T03:15:15.385Z,0.00
2018-09-09T03:16:15.342Z,0.00
2018-09-09T03:17:15.345Z,0.00
2018-09-09T03:18:15.341Z,0.00
2018-09-09T03:19:15.372Z,0.00
2018-09-09T03:20:15.340Z,0.00
2018-09-09T03:21:15.350Z,0.00
2018-09-09T03:22:15.340Z,0.00
2018-09-09T03:23:15.331Z,0.00
2018-09-09T03:24:15.364Z,0.00
2018-09-09T03:25:15.330Z,0.00
2018-09-09T03:26:15.331Z,0.00
2018-09-09T03:27:15.331Z,0.00
2018-09-09T03:28:15.328Z,0.00
2018-09-09T03:29:15.370Z,0.00
2018-09-09T03:30:15.328Z,0.00
2018-09-09T03:31:15.325Z,0.00
2018-09-09T03:32:15.343Z,0.00
2018-09-09T03:33:15.320Z,0.00
2018-09-09T03:34:15.350Z,0.00
2018-09-09T03:35:15.315Z,0.00
2018-09-09T03:36:15.316Z,0.00
2018-09-09T03:37:15.321Z,0.00
2018-09-09T03:38:15.313Z,0.00
2018-09-09T03:39:15.359Z,0.00
2018-09-09T03:40:15.383Z,0.00
2018-09-09T03:41:15.309Z,0.00
2018-09-09T03:42:15.317Z,0.00
2018-09-09T03:43:15.307Z,0.00
2018-09-09T03:44:15.333Z,0.00
2018-09-09T03:45:15.306Z,0.00
2018-09-09T03:46:15.300Z,0.00
2018-09-09T03:47:15.308Z,0.00
2018-09-09T03:48:15.303Z,0.00
2018-09-09T03:49:15.346Z,0.00
2018-09-09T03:50:15.304Z,0.00
2018-09-09T03:51:15.295Z,0.00
2018-09-09T03:52:15.318Z,0.00
2018-09-09T03:53:15.291Z,0.00
2018-09-09T03:54:15.319Z,0.00
2018-09-09T03:55:15.288Z,0.00
2018-09-09T03:56:15.316Z,0.00
2018-09-09T03:57:15.287Z,0.00
2018-09-09T03:58:15.289Z,0.00
2018-09-09T03:59:15.314Z,0.00
2018-09-09T04:00:15.284Z,0.00
2018-09-09T04:01:15.276Z,0.00
2018-09-09T04:02:15.313Z,0.00
2018-09-09T04:03:15.275Z,0.00
2018-09-09T04:04:15.277Z,0.00
2018-09-09T04:05:15.309Z,0.00
2018-09-09T04:06:15.289Z,0.00
2018-09-09T04:07:15.273Z,4.00
2018-09-09T04:08:15.270Z,4.00
2018-09-09T04:09:15.297Z,4.00
2018-09-09T04:10:15.328Z,4.00
2018-09-09T04:11:15.266Z,4.00
2018-09-09T04:12:15.293Z,4.00
2018-09-09T04:13:15.265Z,4.00
2018-09-09T04:14:15.261Z,8.00
2018-09-09T04:15:15.288Z,8.00
2018-09-09T04:16:15.257Z,12.00
2018-09-09T04:17:15.259Z,12.00
2018-09-09T04:18:15.260Z,16.00
2018-09-09T04:19:15.255Z,20.00
2018-09-09T04:20:15.283Z,28.00
2018-09-09T04:21:15.251Z,28.00
2018-09-09T04:22:15.257Z,36.00
2018-09-09T04:23:15.248Z,40.00
2018-09-09T04:24:15.244Z,48.00
2018-09-09T04:25:15.282Z,60.00
2018-09-09T04:26:15.247Z,68.00
2018-09-09T04:27:15.241Z,80.00
2018-09-09T04:28:15.245Z,96.00
2018-09-09T04:29:15.242Z,108.00
2018-09-09T04:30:15.273Z,124.00
2018-09-09T04:31:15.237Z,144.00
2018-09-09T04:32:15.253Z,164.00
2018-09-09T04:33:15.235Z,188.00
2018-09-09T04:34:15.233Z,212.00
2018-09-09T04:35:15.257Z,236.00
2018-09-09T04:36:15.229Z,264.00
2018-09-09T04:37:15.228Z,292.00
2018-09-09T04:38:15.232Z,312.00
2018-09-09T04:39:15.229Z,344.00
2018-09-09T04:40:15.251Z,384.00
2018-09-09T04:41:15.228Z,428.00
2018-09-09T04:42:15.224Z,488.00
2018-09-09T04:43:15.218Z,548.00
2018-09-09T04:44:15.231Z,608.00
2018-09-09T04:45:15.244Z,664.00
2018-09-09T04:46:15.216Z,720.00
2018-09-09T04:47:15.214Z,780.00
2018-09-09T04:48:15.241Z,856.00
2018-09-09T04:49:15.211Z,952.00
2018-09-09T04:50:15.211Z,1064.00
2018-09-09T04:51:15.236Z,1204.00
2018-09-09T04:52:15.231Z,1368.00
2018-09-09T04:53:15.203Z,1540.00
2018-09-09T04:54:15.197Z,1704.00
2018-09-09T04:55:15.199Z,1860.00
2018-09-09T04:56:15.232Z,1972.00
2018-09-09T04:57:15.197Z,2072.00
2018-09-09T04:58:15.205Z,2144.00
2018-09-09T04:59:15.192Z,2228.00
2018-09-09T05:00:15.197Z,2324.00
2018-09-09T05:01:15.238Z,2424.00
2018-09-09T05:02:15.191Z,2528.00
2018-09-09T05:03:15.189Z,2596.00
2018-09-09T05:04:15.184Z,2628.00
2018-09-09T05:05:15.192Z,2632.00
2018-09-09T05:06:15.227Z,2600.00
2018-09-09T05:07:15.181Z,2568.00
2018-09-09T05:08:15.223Z,2512.00
2018-09-09T05:09:15.177Z,2428.00
2018-09-09T05:10:15.178Z,2336.00
2018-09-09T05:11:15.183Z,2292.00
2018-09-09T05:12:15.203Z,2324.00
2018-09-09T05:13:15.173Z,2400.00
2018-09-09T05:14:15.173Z,2516.00
2018-09-09T05:15:15.183Z,2688.00
2018-09-09T05:16:15.199Z,2908.00
2018-09-09T05:17:15.166Z,3144.00
2018-09-09T05:18:15.214Z,3356.00
2018-09-09T05:19:15.167Z,3496.00
2018-09-09T05:20:15.164Z,3552.00
2018-09-09T05:21:15.163Z,3548.00
2018-09-09T05:22:15.197Z,3512.00
2018-09-09T05:23:15.159Z,3496.00
2018-09-09T05:24:15.159Z,3508.00
2018-09-09T05:25:15.168Z,3568.00
2018-09-09T05:26:15.156Z,3668.00
2018-09-09T05:27:15.180Z,3796.00
2018-09-09T05:28:15.155Z,4020.00
2018-09-09T05:29:15.156Z,4368.00
2018-09-09T05:30:15.150Z,4496.00
2018-09-09T05:31:15.175Z,4444.00
2018-09-09T05:32:15.166Z,4596.00
2018-09-09T05:33:15.148Z,4744.00
2018-09-09T05:34:15.148Z,4864.00
2018-09-09T05:35:15.147Z,5060.00
2018-09-09T05:36:15.168Z,5360.00
2018-09-09T05:37:15.143Z,5680.00
2018-09-09T05:38:15.144Z,6008.00
2018-09-09T05:39:15.153Z,6272.00
2018-09-09T05:40:15.139Z,6460.00
2018-09-09T05:41:15.168Z,6576.00
2018-09-09T05:42:15.204Z,6596.00
2018-09-09T05:43:15.161Z,6548.00
2018-09-09T05:44:15.130Z,6464.00
2018-09-09T05:45:15.131Z,6292.00
2018-09-09T05:46:15.150Z,6108.00
2018-09-09T05:47:15.158Z,5928.00
2018-09-09T05:48:15.134Z,5768.00
2018-09-09T05:49:15.144Z,5620.00
2018-09-09T05:50:15.131Z,5484.00
2018-09-09T05:51:15.157Z,5408.00
2018-09-09T05:52:15.125Z,5436.00
2018-09-09T05:53:15.126Z,5528.00
2018-09-09T05:54:15.128Z,5664.00
2018-09-09T05:55:15.129Z,5816.00
2018-09-09T05:56:15.167Z,5908.00
2018-09-09T05:57:15.123Z,6084.00
2018-09-09T05:58:15.125Z,6232.00
2018-09-09T05:59:15.123Z,6284.00
2018-09-09T06:00:15.126Z,6264.00
2018-09-09T06:01:15.149Z,6336.00
2018-09-09T06:02:15.127Z,6292.00
2018-09-09T06:03:15.125Z,6336.00
2018-09-09T06:04:15.120Z,6448.00
2018-09-09T06:05:15.121Z,6616.00
2018-09-09T06:06:15.152Z,6824.00
2018-09-09T06:07:15.121Z,7108.00
2018-09-09T06:08:15.121Z,7432.00
2018-09-09T06:09:15.122Z,7744.00
2018-09-09T06:10:15.119Z,8028.00
2018-09-09T06:11:15.147Z,8308.00
2018-09-09T06:12:15.156Z,8532.00
2018-09-09T06:13:15.113Z,8764.00
2018-09-09T06:14:15.115Z,8976.00
2018-09-09T06:15:15.117Z,9120.00
2018-09-09T06:16:15.117Z,9108.00
2018-09-09T06:17:15.169Z,8792.00
2018-09-09T06:18:15.118Z,8376.00
2018-09-09T06:19:15.118Z,8104.00
2018-09-09T06:20:15.142Z,7980.00
2018-09-09T06:21:15.118Z,7956.00
2018-09-09T06:22:15.143Z,8024.00
2018-09-09T06:23:15.114Z,8200.00
2018-09-09T06:24:15.115Z,8552.00
2018-09-09T06:25:15.129Z,9032.00
2018-09-09T06:26:15.117Z,9572.00
2018-09-09T06:27:15.156Z,10092.00
2018-09-09T06:28:15.164Z,10632.00
2018-09-09T06:29:15.120Z,10960.00
2018-09-09T06:30:15.119Z,11288.00
2018-09-09T06:31:15.116Z,11500.00
2018-09-09T06:32:15.143Z,11628.00
2018-09-09T06:33:15.120Z,11760.00
2018-09-09T06:34:15.117Z,11920.00
2018-09-09T06:35:15.116Z,12708.00
2018-09-09T06:36:15.120Z,13004.00
2018-09-09T06:37:15.149Z,14024.00
2018-09-09T06:38:15.128Z,13664.00
2018-09-09T06:39:15.116Z,13636.00
2018-09-09T06:40:15.116Z,14012.00
2018-09-09T06:41:15.132Z,13840.00
2018-09-09T06:42:15.144Z,13684.00
2018-09-09T06:43:15.121Z,13516.00
2018-09-09T06:44:15.122Z,13480.00
2018-09-09T06:45:15.123Z,14036.00
2018-09-09T06:46:15.121Z,14348.00
2018-09-09T06:47:15.152Z,14768.00
2018-09-09T06:48:15.122Z,15080.00
2018-09-09T06:49:15.126Z,15404.00
2018-09-09T06:50:15.125Z,16144.00
2018-09-09T06:51:15.150Z,15936.00
2018-09-09T06:52:15.154Z,14936.00
2018-09-09T06:53:15.130Z,13584.00
2018-09-09T06:54:15.127Z,13284.00
2018-09-09T06:55:15.154Z,13200.00
2018-09-09T06:56:15.135Z,13188.00
2018-09-09T06:57:15.168Z,13176.00
2018-09-09T06:58:15.146Z,13112.00
2018-09-09T06:59:15.137Z,13056.00
2018-09-09T07:00:15.143Z,13224.00
2018-09-09T07:01:15.144Z,13708.00
2018-09-09T07:02:15.182Z,13852.00
2018-09-09T07:03:15.148Z,14540.00
2018-09-09T07:04:15.149Z,15360.00
2018-09-09T07:05:15.168Z,16204.00
2018-09-09T07:06:15.157Z,16832.00
2018-09-09T07:07:15.181Z,17440.00
2018-09-09T07:08:15.156Z,18240.00
2018-09-09T07:09:15.157Z,18528.00
2018-09-09T07:10:15.157Z,17888.00
2018-09-09T07:11:15.249Z,17792.00
2018-09-09T07:12:15.189Z,17536.00
2018-09-09T07:13:15.161Z,16772.00
2018-09-09T07:14:15.166Z,15912.00
2018-09-09T07:15:15.166Z,14916.00
2018-09-09T07:16:15.212Z,13952.00
2018-09-09T07:17:15.174Z,13208.00
2018-09-09T07:18:15.175Z,12680.00
2018-09-09T07:19:15.228Z,12360.00
2018-09-09T07:20:15.174Z,12336.00
2018-09-09T07:21:15.179Z,12376.00
2018-09-09T07:22:15.210Z,12744.00
2018-09-09T07:23:15.182Z,13324.00
2018-09-09T07:24:15.185Z,13968.00
2018-09-09T07:25:15.191Z,14536.00
2018-09-09T07:26:15.188Z,14960.00
2018-09-09T07:27:15.213Z,15208.00
2018-09-09T07:28:15.191Z,15492.00
2018-09-09T07:29:15.191Z,15976.00
2018-09-09T07:30:15.196Z,16768.00
2018-09-09T07:31:15.268Z,18112.00
2018-09-09T07:32:15.219Z,19712.00
2018-09-09T07:33:15.204Z,21600.00
2018-09-09T07:34:15.223Z,22880.00
2018-09-09T07:35:15.219Z,23232.00
2018-09-09T07:36:15.252Z,23168.00
2018-09-09T07:37:15.224Z,22784.00
2018-09-09T07:38:15.240Z,22624.00
2018-09-09T07:39:15.214Z,22432.00
2018-09-09T07:40:15.217Z,21248.00
2018-09-09T07:41:15.222Z,21024.00
2018-09-09T07:42:15.249Z,21248.00
2018-09-09T07:43:15.897Z,22048.00
2018-09-09T07:44:15.230Z,22944.00
2018-09-09T07:45:15.235Z,23840.00
2018-09-09T07:46:15.257Z,24064.00
2018-09-09T07:47:15.306Z,24544.00
2018-09-09T07:48:15.243Z,22144.00
2018-09-09T07:49:15.243Z,18592.00
2018-09-09T07:50:15.267Z,19200.00
2018-09-09T07:51:15.262Z,18944.00
2018-09-09T07:52:15.279Z,18400.00
2018-09-09T07:53:15.256Z,17004.00
2018-09-09T07:54:15.260Z,14392.00
2018-09-09T07:55:15.291Z,14468.00
2018-09-09T07:56:15.269Z,15036.00
2018-09-09T07:57:15.280Z,15848.00
2018-09-09T07:58:15.303Z,17232.00
2018-09-09T07:59:15.283Z,18912.00
2018-09-09T08:00:15.309Z,20192.00
2018-09-09T08:01:15.290Z,21280.00
2018-09-09T08:02:15.297Z,24448.00
2018-09-09T08:03:15.327Z,26560.00
2018-09-09T08:04:15.307Z,27712.00
2018-09-09T08:05:15.316Z,28000.00
2018-09-09T08:06:15.329Z,29632.00
2018-09-09T08:07:15.321Z,28736.00
2018-09-09T08:08:15.369Z,28736.00
2018-09-09T08:09:15.981Z,27936.00
2018-09-09T08:10:15.377Z,26496.00
2018-09-09T08:11:15.349Z,27040.00
2018-09-09T08:12:15.396Z,24704.00
2018-09-09T08:13:15.362Z,26656.00
2018-09-09T08:14:15.402Z,28224.00
2018-09-09T08:15:15.390Z,27872.00
2018-09-09T08:16:15.391Z,28160.00
2018-09-09T08:17:15.913Z,29088.00
2018-09-09T08:18:15.446Z,30400.00
2018-09-09T08:19:15.438Z,33920.00
2018-09-09T08:20:15.421Z,30304.00
2018-09-09T08:21:15.432Z,30272.00
2018-09-09T08:22:15.456Z,32608.00
2018-09-09T08:23:15.471Z,31904.00
2018-09-09T08:24:15.484Z,29408.00
2018-09-09T08:25:15.463Z,29440.00
2018-09-09T08:26:16.411Z,30048.00
2018-09-09T08:27:15.488Z,30048.00
2018-09-09T08:28:15.521Z,31200.00
2018-09-09T08:29:15.500Z,30496.00
2018-09-09T08:30:15.539Z,30784.00
2018-09-09T08:31:15.519Z,31680.00
2018-09-09T08:32:15.532Z,32768.00
2018-09-09T08:33:15.538Z,33984.00
2018-09-09T08:34:15.573Z,34784.00
2018-09-09T08:35:15.557Z,33632.00
2018-09-09T08:36:15.567Z,33120.00
2018-09-09T08:37:15.592Z,31616.00
2018-09-09T08:38:18.022Z,29440.00
2018-09-09T08:39:15.627Z,27520.00
2018-09-09T08:40:15.609Z,25856.00
2018-09-09T08:41:15.611Z,24800.00
2018-09-09T08:42:15.627Z,24128.00
2018-09-09T08:43:15.630Z,23776.00
2018-09-09T08:44:15.670Z,24256.00
2018-09-09T08:45:15.651Z,25568.00
2018-09-09T08:46:15.666Z,24640.00
2018-09-09T08:47:15.669Z,25248.00
2018-09-09T08:48:15.720Z,31104.00
2018-09-09T08:49:15.687Z,30432.00
2018-09-09T08:50:15.699Z,27616.00
2018-09-09T08:51:15.708Z,28800.00
2018-09-09T08:52:15.734Z,32064.00
2018-09-09T08:53:15.756Z,31616.00
2018-09-09T08:54:15.737Z,34240.00
2018-09-09T08:55:15.747Z,36416.00
2018-09-09T08:56:15.758Z,38528.00
2018-09-09T08:57:15.765Z,39360.00
2018-09-09T08:58:15.807Z,40480.00
2018-09-09T08:59:15.785Z,41760.00
2018-09-09T09:00:15.800Z,41952.00
2018-09-09T09:01:15.816Z,41824.00
2018-09-09T09:02:15.824Z,41792.00
2018-09-09T09:03:15.864Z,39904.00
2018-09-09T09:04:15.849Z,37984.00
2018-09-09T09:05:15.865Z,36832.00
2018-09-09T09:06:15.875Z,34368.00
2018-09-09T09:07:15.887Z,34656.00
2018-09-09T09:08:15.933Z,31808.00
2018-09-09T09:09:15.917Z,31424.00
2018-09-09T09:10:15.925Z,31168.00
2018-09-09T09:11:15.933Z,30528.00
2018-09-09T09:12:15.978Z,29536.00
2018-09-09T09:13:15.967Z,28736.00
2018-09-09T09:14:15.976Z,27488.00
2018-09-09T09:15:15.989Z,26624.00
2018-09-09T09:16:16.019Z,26208.00
2018-09-09T09:17:16.012Z,26048.00
2018-09-09T09:18:16.052Z,26112.00
2018-09-09T09:19:16.033Z,26304.00
2018-09-09T09:20:16.043Z,26784.00
2018-09-09T09:21:16.052Z,27200.00
2018-09-09T09:22:16.093Z,27968.00
2018-09-09T09:23:16.074Z,29120.00
2018-09-09T09:24:16.091Z,29536.00
2018-09-09T09:25:16.097Z,30368.00
2018-09-09T09:26:16.104Z,31264.00
2018-09-09T09:27:16.148Z,31872.00
2018-09-09T09:28:16.144Z,32160.00
2018-09-09T09:29:16.136Z,31936.00
2018-09-09T09:30:16.144Z,31328.00
2018-09-09T09:31:16.162Z,30912.00
2018-09-09T09:32:16.189Z,30624.00
2018-09-09T09:33:16.175Z,30592.00
2018-09-09T09:34:16.182Z,30720.00
2018-09-09T09:35:16.199Z,30912.00
2018-09-09T09:36:16.197Z,30912.00
2018-09-09T09:37:16.230Z,30560.00
2018-09-09T09:38:16.218Z,30176.00
2018-09-09T09:39:16.222Z,29824.00
2018-09-09T09:40:17.007Z,29600.00
2018-09-09T09:41:18.413Z,29632.00
2018-09-09T09:42:16.494Z,30240.00
2018-09-09T09:43:19.809Z,31168.00
2018-09-09T09:44:17.089Z,32384.00
2018-09-09T09:45:16.299Z,33664.00
2018-09-09T09:46:16.331Z,34688.00
2018-09-09T09:47:16.374Z,35584.00
2018-09-09T09:48:16.978Z,36448.00
2018-09-09T09:49:19.818Z,37632.00
2018-09-09T09:50:17.714Z,38976.00
2018-09-09T09:51:16.730Z,40416.00
2018-09-09T09:52:17.756Z,41248.00
2018-09-09T09:53:16.785Z,39424.00
2018-09-09T09:54:19.487Z,38496.00
2018-09-09T09:55:31.706Z,37856.00
2018-09-09T09:56:21.440Z,39104.00
2018-09-09T09:57:17.559Z,39712.00
2018-09-09T09:58:21.006Z,39712.00
2018-09-09T09:59:16.473Z,38368.00
2018-09-09T10:00:17.006Z,40256.00
2018-09-09T10:01:17.904Z,38560.00
2018-09-09T10:02:16.958Z,36896.00
2018-09-09T10:03:16.453Z,34080.00
2018-09-09T10:04:16.462Z,33312.00
2018-09-09T10:05:16.451Z,33120.00
2018-09-09T10:06:16.459Z,33216.00
2018-09-09T10:07:16.462Z,33952.00
2018-09-09T10:08:16.496Z,34688.00
2018-09-09T10:09:16.474Z,37696.00
2018-09-09T10:10:16.484Z,37664.00
2018-09-09T10:11:16.488Z,35616.00
2018-09-09T10:12:16.524Z,34656.00
2018-09-09T10:13:16.509Z,34112.00
2018-09-09T10:14:16.515Z,35808.00
2018-09-09T10:15:16.558Z,40288.00
2018-09-09T10:16:16.538Z,36032.00
2018-09-09T10:17:16.574Z,34976.00
2018-09-09T10:18:16.563Z,33824.00
2018-09-09T10:19:16.557Z,31584.00
2018-09-09T10:20:16.566Z,30880.00
2018-09-09T10:21:16.581Z,30080.00
2018-09-09T10:22:16.615Z,29952.00
2018-09-09T10:23:16.601Z,30016.00
2018-09-09T10:24:16.606Z,30624.00
2018-09-09T10:25:16.634Z,31840.00
2018-09-09T10:26:16.622Z,33568.00
2018-09-09T10:27:16.658Z,35552.00
2018-09-09T10:28:16.667Z,49248.00
2018-09-09T10:29:16.664Z,77856.00
2018-09-09T10:30:16.657Z,88640.00
2018-09-09T10:31:16.664Z,96640.00
2018-09-09T10:32:16.703Z,99040.00
2018-09-09T10:33:16.719Z,93088.00
2018-09-09T10:34:16.696Z,99584.00
2018-09-09T10:35:16.704Z,101984.00
2018-09-09T10:36:16.717Z,91904.00
2018-09-09T10:37:16.753Z,80448.00
2018-09-09T10:38:16.769Z,89376.00
2018-09-09T10:39:16.753Z,84096.00
2018-09-09T10:40:16.769Z,89472.00
2018-09-09T10:41:16.777Z,95776.00
2018-09-09T10:42:16.817Z,97088.00
2018-09-09T10:43:16.833Z,96992.00
2018-09-09T10:44:16.826Z,96224.00
2018-09-09T10:45:16.834Z,97504.00
2018-09-09T10:46:16.931Z,90144.00
2018-09-09T10:47:16.914Z,93664.00
2018-09-09T10:48:16.903Z,95008.00
2018-09-09T10:49:16.898Z,97120.00
2018-09-09T10:50:16.911Z,103584.00
2018-09-09T10:51:16.955Z,102496.00
2018-09-09T10:52:16.971Z,107072.00
2018-09-09T10:53:17.071Z,108896.00
2018-09-09T10:54:16.975Z,103936.00
2018-09-09T10:55:16.990Z,104064.00
2018-09-09T10:56:17.011Z,97152.00
2018-09-09T10:57:17.056Z,90080.00
2018-09-09T10:58:17.044Z,108032.00
2018-09-09T10:59:17.061Z,102784.00
2018-09-09T11:00:17.080Z,102368.00
2018-09-09T11:01:17.092Z,91520.00
2018-09-09T11:02:17.161Z,91136.00
2018-09-09T11:03:17.134Z,92224.00
2018-09-09T11:04:17.148Z,90752.00
2018-09-09T11:05:17.170Z,94656.00
2018-09-09T11:06:17.202Z,102496.00
2018-09-09T11:07:17.230Z,96288.00
2018-09-09T11:08:17.222Z,98528.00
2018-09-09T11:09:17.242Z,104192.00
2018-09-09T11:10:17.266Z,99392.00
2018-09-09T11:11:17.274Z,102144.00
2018-09-09T11:12:17.327Z,98304.00
2018-09-09T11:13:17.309Z,92992.00
2018-09-09T11:14:17.327Z,89984.00
2018-09-09T11:15:17.348Z,93632.00
2018-09-09T11:16:17.367Z,94656.00
2018-09-09T11:17:17.429Z,94176.00
2018-09-09T11:18:17.434Z,91040.00
2018-09-09T11:19:17.419Z,36928.00
2018-09-09T11:20:17.444Z,67200.00
2018-09-09T11:21:17.453Z,67968.00
2018-09-09T11:22:17.500Z,89984.00
2018-09-09T11:23:17.493Z,80864.00
2018-09-09T11:24:17.509Z,78816.00
2018-09-09T11:25:17.532Z,94624.00
2018-09-09T11:26:17.545Z,74304.00
2018-09-09T11:27:17.586Z,82304.00
2018-09-09T11:28:17.578Z,81024.00
2018-09-09T11:29:17.594Z,71328.00
2018-09-09T11:30:17.611Z,71168.00
2018-09-09T11:31:17.631Z,57280.00
2018-09-09T11:32:17.678Z,68480.00
2018-09-09T11:33:17.660Z,70208.00
2018-09-09T11:34:17.679Z,76928.00
2018-09-09T11:35:17.696Z,94624.00
2018-09-09T11:36:17.768Z,69408.00
2018-09-09T11:37:17.763Z,77504.00
2018-09-09T11:38:17.743Z,74144.00
2018-09-09T11:39:17.762Z,85952.00
2018-09-09T11:40:17.799Z,91904.00
2018-09-09T11:41:17.788Z,95904.00
2018-09-09T11:42:17.836Z,82976.00
2018-09-09T11:43:17.825Z,55936.00
2018-09-09T11:44:17.845Z,52096.00
2018-09-09T11:45:17.864Z,75360.00
2018-09-09T11:46:17.874Z,55360.00
2018-09-09T11:47:17.929Z,65120.00
2018-09-09T11:48:17.908Z,88576.00
2018-09-09T11:49:17.925Z,82944.00
2018-09-09T11:50:17.939Z,78176.00
2018-09-09T11:51:17.954Z,88736.00
2018-09-09T11:52:17.992Z,80512.00
2018-09-09T11:53:18.054Z,87168.00
2018-09-09T11:54:18.002Z,61632.00
2018-09-09T11:55:18.013Z,61568.00
2018-09-09T11:56:18.031Z,62688.00
2018-09-09T11:57:18.080Z,51136.00
2018-09-09T11:58:18.064Z,43552.00
2018-09-09T11:59:18.090Z,41856.00
2018-09-09T12:00:18.103Z,41248.00
2018-09-09T12:01:18.112Z,41056.00
2018-09-09T12:02:18.181Z,41088.00
2018-09-09T12:03:18.146Z,41248.00
2018-09-09T12:04:18.157Z,41344.00
2018-09-09T12:05:18.176Z,41984.00
2018-09-09T12:06:18.204Z,43072.00
2018-09-09T12:07:18.228Z,44512.00
2018-09-09T12:08:18.245Z,45792.00
2018-09-09T12:09:18.226Z,45312.00
2018-09-09T12:10:18.254Z,45408.00
2018-09-09T12:11:18.254Z,45312.00
2018-09-09T12:12:18.274Z,45568.00
2018-09-09T12:13:18.313Z,48160.00
2018-09-09T12:14:18.289Z,50208.00
2018-09-09T12:15:18.306Z,51072.00
2018-09-09T12:16:18.318Z,53216.00
2018-09-09T12:17:18.339Z,48672.00
2018-09-09T12:18:18.371Z,46368.00
2018-09-09T12:19:18.356Z,46048.00